Bluefield, West Virginia
Current Conditions -  °F | °C
As of 1:52 AM on Wednesday 26 Nov 2014 (Local Time) from KBLF Reporting Station
Overcast Overcast  
Wind Chill: 39°   Ceiling: 9000
Heat Index: 42°   Visibility: 10mi
Dew Point: 24°   Wind: 5mph
Humidity: 49%   Direction: 90°E
Pressure: 30.03"   Gusts: NA
Location:  37.27°N, 81.22°W
Report Text: KBLF 260652Z AUTO 09004KT 10SM OVC090 06/M04 A3003 RMK AO2 SLP163 T00561044
Loading
Personal Weather Stations






























Interactive Weather Map New forecast layout! Learn more

10-Day Weather Forecast

Advertisements
Track Severe Weather on mobile